sensor_id;sensor_type;location;lat;lon;timestamp;pressure;altitude;pressure_sealevel;temperature;humidity
15050;BME280;7622;42.724;23.250;2023-04-21T00:00:51;94278.75;;;10.76;100.00
15050;BME280;7622;42.724;23.250;2023-04-21T00:03:18;94277.19;;;10.65;100.00
15050;BME280;7622;42.724;23.250;2023-04-21T00:05:46;94258.44;;;10.71;100.00
15050;BME280;7622;42.724;23.250;2023-04-21T00:08:13;94277.66;;;10.86;100.00
15050;BME280;7622;42.724;23.250;2023-04-21T00:10:40;94271.28;;;10.81;100.00
15050;BME280;7622;42.724;23.250;2023-04-21T00:13:09;94266.75;;;10.83;100.00
15050;BME280;7622;42.724;23.250;2023-04-21T00:15:36;94270.63;;;10.79;100.00
15050;BME280;7622;42.724;23.250;2023-04-21T00:18:03;94270.94;;;10.76;100.00
15050;BME280;7622;42.724;23.250;2023-04-21T00:20:31;94268.00;;;10.71;100.00
15050;BME280;7622;42.724;23.250;2023-04-21T00:22:58;94271.00;;;10.84;100.00
15050;BME280;7622;42.724;23.250;2023-04-21T00:25:25;94269.47;;;10.73;100.00
15050;BME280;7622;42.724;23.250;2023-04-21T00:27:52;94275.81;;;10.79;100.00
15050;BME280;7622;42.724;23.250;2023-04-21T00:30:21;94263.50;;;10.81;100.00
15050;BME280;7622;42.724;23.250;2023-04-21T00:32:47;94268.00;;;10.71;100.00
15050;BME280;7622;42.724;23.250;2023-04-21T00:35:14;94272.88;;;10.74;100.00
15050;BME280;7622;42.724;23.250;2023-04-21T00:37:41;94270.19;;;10.83;100.00
15050;BME280;7622;42.724;23.250;2023-04-21T00:40:08;94275.22;;;10.85;100.00
15050;BME280;7622;42.724;23.250;2023-04-21T00:42:35;94272.25;;;10.72;100.00
15050;BME280;7622;42.724;23.250;2023-04-21T00:45:02;94270.63;;;10.79;100.00
15050;BME280;7622;42.724;23.250;2023-04-21T00:47:31;94268.50;;;10.74;100.00
15050;BME280;7622;42.724;23.250;2023-04-21T00:49:57;94272.06;;;10.73;100.00
15050;BME280;7622;42.724;23.250;2023-04-21T00:52:25;94270.22;;;10.65;100.00
15050;BME280;7622;42.724;23.250;2023-04-21T00:54:52;94263.72;;;10.36;100.00
15050;BME280;7622;42.724;23.250;2023-04-21T00:57:19;94265.19;;;10.38;100.00
15050;BME280;7622;42.724;23.250;2023-04-21T00:59:46;94252.53;;;10.17;100.00
15050;BME280;7622;42.724;23.250;2023-04-21T01:02:14;94251.50;;;10.28;100.00
15050;BME280;7622;42.724;23.250;2023-04-21T01:04:43;94251.44;;;10.20;100.00
15050;BME280;7622;42.724;23.250;2023-04-21T01:07:10;94258.13;;;10.22;100.00
15050;BME280;7622;42.724;23.250;2023-04-21T01:09:37;94252.16;;;10.12;100.00
15050;BME280;7622;42.724;23.250;2023-04-21T01:12:05;94254.25;;;10.26;100.00
15050;BME280;7622;42.724;23.250;2023-04-21T01:14:33;94231.44;;;9.95;100.00
15050;BME280;7622;42.724;23.250;2023-04-21T01:17:00;94259.81;;;10.14;100.00
15050;BME280;7622;42.724;23.250;2023-04-21T01:19:31;94250.31;;;10.05;100.00
15050;BME280;7622;42.724;23.250;2023-04-21T01:22:00;94253.22;;;10.19;100.00
15050;BME280;7622;42.724;23.250;2023-04-21T01:24:35;94246.19;;;10.38;100.00
15050;BME280;7622;42.724;23.250;2023-04-21T01:27:01;94252.19;;;10.38;100.00
15050;BME280;7622;42.724;23.250;2023-04-21T01:29:31;94250.34;;;10.31;100.00
15050;BME280;7622;42.724;23.250;2023-04-21T01:32:03;94245.91;;;10.41;100.00
15050;BME280;7622;42.724;23.250;2023-04-21T01:34:30;94252.88;;;10.40;100.00
15050;BME280;7622;42.724;23.250;2023-04-21T01:36:56;94247.69;;;10.40;100.00
15050;BME280;7622;42.724;23.250;2023-04-21T01:39:25;94248.44;;;10.33;100.00
15050;BME280;7622;42.724;23.250;2023-04-21T01:41:52;94243.59;;;10.38;100.00
15050;BME280;7622;42.724;23.250;2023-04-21T01:44:20;94242.13;;;10.35;100.00
15050;BME280;7622;42.724;23.250;2023-04-21T01:46:46;94239.59;;;10.43;100.00
15050;BME280;7622;42.724;23.250;2023-04-21T01:49:13;94240.03;;;10.39;100.00
15050;BME280;7622;42.724;23.250;2023-04-21T01:51:40;94247.28;;;10.27;100.00
15050;BME280;7622;42.724;23.250;2023-04-21T01:54:07;94250.06;;;10.34;100.00
15050;BME280;7622;42.724;23.250;2023-04-21T01:56:35;94236.63;;;10.38;100.00
15050;BME280;7622;42.724;23.250;2023-04-21T01:59:01;94237.91;;;10.34;100.00
15050;BME280;7622;42.724;23.250;2023-04-21T02:01:28;94238.88;;;10.33;100.00
15050;BME280;7622;42.724;23.250;2023-04-21T02:03:55;94246.41;;;10.44;100.00
15050;BME280;7622;42.724;23.250;2023-04-21T02:06:22;94243.44;;;10.39;100.00
15050;BME280;7622;42.724;23.250;2023-04-21T02:08:49;94240.25;;;10.45;100.00
15050;BME280;7622;42.724;23.250;2023-04-21T02:11:15;94246.91;;;10.48;100.00
15050;BME280;7622;42.724;23.250;2023-04-21T02:13:44;94253.22;;;10.45;100.00
15050;BME280;7622;42.724;23.250;2023-04-21T02:16:11;94236.28;;;10.33;100.00
15050;BME280;7622;42.724;23.250;2023-04-21T02:18:37;94249.88;;;10.53;100.00
15050;BME280;7622;42.724;23.250;2023-04-21T02:21:05;94247.34;;;10.35;100.00
15050;BME280;7622;42.724;23.250;2023-04-21T02:23:32;94243.25;;;10.33;100.00
15050;BME280;7622;42.724;23.250;2023-04-21T02:26:00;94217.41;;;10.23;100.00
15050;BME280;7622;42.724;23.250;2023-04-21T02:28:26;94247.41;;;10.51;100.00
15050;BME280;7622;42.724;23.250;2023-04-21T02:30:55;94245.88;;;10.15;100.00
15050;BME280;7622;42.724;23.250;2023-04-21T02:33:21;94249.50;;;10.04;100.00
15050;BME280;7622;42.724;23.250;2023-04-21T02:35:48;94248.56;;;9.87;100.00
15050;BME280;7622;42.724;23.250;2023-04-21T02:38:15;94247.00;;;9.77;100.00
15050;BME280;7622;42.724;23.250;2023-04-21T02:40:42;94246.06;;;9.60;100.00
15050;BME280;7622;42.724;23.250;2023-04-21T02:43:08;94247.19;;;9.48;100.00
15050;BME280;7622;42.724;23.250;2023-04-21T02:45:37;94249.66;;;9.49;100.00
15050;BME280;7622;42.724;23.250;2023-04-21T02:48:05;94229.56;;;9.34;100.00
15050;BME280;7622;42.724;23.250;2023-04-21T02:50:32;94254.53;;;9.35;100.00
15050;BME280;7622;42.724;23.250;2023-04-21T02:52:59;94233.06;;;9.25;100.00
15050;BME280;7622;42.724;23.250;2023-04-21T02:55:25;94254.75;;;9.24;100.00
15050;BME280;7622;42.724;23.250;2023-04-21T02:57:52;94257.19;;;9.25;100.00
15050;BME280;7622;42.724;23.250;2023-04-21T03:00:19;94260.63;;;9.43;100.00
15050;BME280;7622;42.724;23.250;2023-04-21T03:02:46;94256.19;;;9.54;100.00
15050;BME280;7622;42.724;23.250;2023-04-21T03:05:14;94249.50;;;9.69;100.00
15050;BME280;7622;42.724;23.250;2023-04-21T03:07:43;94246.06;;;9.60;100.00
15050;BME280;7622;42.724;23.250;2023-04-21T03:10:10;94258.03;;;9.61;100.00
15050;BME280;7622;42.724;23.250;2023-04-21T03:12:37;94259.25;;;9.67;100.00
15050;BME280;7622;42.724;23.250;2023-04-21T03:15:05;94251.22;;;9.60;100.00
15050;BME280;7622;42.724;23.250;2023-04-21T03:17:32;94261.88;;;9.57;100.00
15050;BME280;7622;42.724;23.250;2023-04-21T03:19:58;94261.59;;;9.60;100.00
15050;BME280;7622;42.724;23.250;2023-04-21T03:22:26;94263.59;;;9.66;100.00
15050;BME280;7622;42.724;23.250;2023-04-21T03:24:53;94262.13;;;9.64;100.00
15050;BME280;7622;42.724;23.250;2023-04-21T03:27:20;94265.13;;;9.41;100.00
15050;BME280;7622;42.724;23.250;2023-04-21T03:29:47;94249.28;;;9.44;100.00
15050;BME280;7622;42.724;23.250;2023-04-21T03:32:13;94273.56;;;9.43;100.00
15050;BME280;7622;42.724;23.250;2023-04-21T03:34:40;94270.03;;;9.44;100.00
15050;BME280;7622;42.724;23.250;2023-04-21T03:37:07;94264.72;;;9.46;100.00
15050;BME280;7622;42.724;23.250;2023-04-21T03:39:35;94273.84;;;9.40;100.00
15050;BME280;7622;42.724;23.250;2023-04-21T03:42:02;94271.78;;;9.26;100.00
15050;BME280;7622;42.724;23.250;2023-04-21T03:44:29;94264.00;;;9.26;100.00
15050;BME280;7622;42.724;23.250;2023-04-21T03:46:56;94272.97;;;9.32;100.00
15050;BME280;7622;42.724;23.250;2023-04-21T03:49:23;94273.25;;;9.29;100.00
15050;BME280;7622;42.724;23.250;2023-04-21T03:51:49;94275.06;;;9.46;100.00
15050;BME280;7622;42.724;23.250;2023-04-21T03:54:16;94280.59;;;9.33;100.00
15050;BME280;7622;42.724;23.250;2023-04-21T03:56:44;94278.03;;;9.51;100.00
15050;BME280;7622;42.724;23.250;2023-04-21T03:59:11;94269.06;;;9.63;100.00
15050;BME280;7622;42.724;23.250;2023-04-21T04:01:38;94269.75;;;9.83;100.00
15050;BME280;7622;42.724;23.250;2023-04-21T04:04:06;94282.19;;;10.15;100.00
15050;BME280;7622;42.724;23.250;2023-04-21T04:06:33;94283.97;;;10.32;100.00
15050;BME280;7622;42.724;23.250;2023-04-21T04:09:00;94283.69;;;10.35;100.00
15050;BME280;7622;42.724;23.250;2023-04-21T04:11:28;94293.66;;;10.48;100.00
15050;BME280;7622;42.724;23.250;2023-04-21T04:13:57;94296.47;;;10.54;100.00
15050;BME280;7622;42.724;23.250;2023-04-21T04:16:24;94291.31;;;10.62;100.00
15050;BME280;7622;42.724;23.250;2023-04-21T04:18:50;94294.78;;;10.71;100.00
15050;BME280;7622;42.724;23.250;2023-04-21T04:21:17;94303.97;;;10.57;100.00
15050;BME280;7622;42.724;23.250;2023-04-21T04:23:44;94303.56;;;10.70;100.00
15050;BME280;7622;42.724;23.250;2023-04-21T04:26:11;94301.91;;;10.69;100.00
15050;BME280;7622;42.724;23.250;2023-04-21T04:28:37;94303.69;;;10.69;100.00
15050;BME280;7622;42.724;23.250;2023-04-21T04:31:06;94306.69;;;10.82;100.00
15050;BME280;7622;42.724;23.250;2023-04-21T04:33:32;94309.66;;;10.87;100.00
15050;BME280;7622;42.724;23.250;2023-04-21T04:35:59;94309.44;;;10.80;100.00
15050;BME280;7622;42.724;23.250;2023-04-21T04:38:26;94310.47;;;10.87;100.00
15050;BME280;7622;42.724;23.250;2023-04-21T04:40:54;94309.56;;;10.71;100.00
15050;BME280;7622;42.724;23.250;2023-04-21T04:43:22;94311.88;;;10.82;100.00
15050;BME280;7622;42.724;23.250;2023-04-21T04:45:49;94316.53;;;10.70;100.00
15050;BME280;7622;42.724;23.250;2023-04-21T04:48:18;94319.75;;;10.64;100.00
15050;BME280;7622;42.724;23.250;2023-04-21T04:50:45;94305.06;;;10.29;100.00
15050;BME280;7622;42.724;23.250;2023-04-21T04:53:11;94315.94;;;10.58;100.00
15050;BME280;7622;42.724;23.250;2023-04-21T04:55:38;94323.38;;;10.53;100.00
15050;BME280;7622;42.724;23.250;2023-04-21T04:58:05;94323.81;;;10.66;100.00
15050;BME280;7622;42.724;23.250;2023-04-21T05:00:32;94324.88;;;10.82;100.00
15050;BME280;7622;42.724;23.250;2023-04-21T05:02:59;94335.34;;;10.90;100.00
15050;BME280;7622;42.724;23.250;2023-04-21T05:05:27;94331.16;;;10.97;100.00
15050;BME280;7622;42.724;23.250;2023-04-21T05:07:54;94317.00;;;10.91;100.00
15050;BME280;7622;42.724;23.250;2023-04-21T05:10:20;94326.56;;;10.91;100.00
15050;BME280;7622;42.724;23.250;2023-04-21T05:12:47;94328.91;;;11.02;100.00
15050;BME280;7622;42.724;23.250;2023-04-21T05:15:14;94319.72;;;11.16;100.00
15050;BME280;7622;42.724;23.250;2023-04-21T05:17:42;94322.16;;;11.17;100.00
15050;BME280;7622;42.724;23.250;2023-04-21T05:20:09;94329.66;;;11.28;100.00
15050;BME280;7622;42.724;23.250;2023-04-21T05:22:38;94299.44;;;11.19;100.00
15050;BME280;7622;42.724;23.250;2023-04-21T05:25:06;94324.31;;;11.72;100.00
15050;BME280;7622;42.724;23.250;2023-04-21T05:27:33;94325.66;;;11.84;100.00
15050;BME280;7622;42.724;23.250;2023-04-21T05:29:59;94329.94;;;12.17;100.00
15050;BME280;7622;42.724;23.250;2023-04-21T05:32:26;94321.34;;;12.33;100.00
15050;BME280;7622;42.724;23.250;2023-04-21T05:34:53;94319.47;;;13.15;100.00
15050;BME280;7622;42.724;23.250;2023-04-21T05:37:20;94318.19;;;13.58;100.00
15050;BME280;7622;42.724;23.250;2023-04-21T05:39:48;94320.28;;;14.47;100.00
15050;BME280;7622;42.724;23.250;2023-04-21T05:42:15;94328.25;;;14.91;100.00
15050;BME280;7622;42.724;23.250;2023-04-21T05:44:42;94316.28;;;15.41;96.79
15050;BME280;7622;42.724;23.250;2023-04-21T05:47:09;94318.91;;;15.41;90.54
15050;BME280;7622;42.724;23.250;2023-04-21T05:49:36;94324.81;;;15.93;87.86
15050;BME280;7622;42.724;23.250;2023-04-21T05:52:03;94329.84;;;16.09;89.77
15050;BME280;7622;42.724;23.250;2023-04-21T05:54:29;94333.88;;;16.69;87.05
15050;BME280;7622;42.724;23.250;2023-04-21T05:56:58;94322.97;;;17.49;75.49
15050;BME280;7622;42.724;23.250;2023-04-21T05:59:25;94330.63;;;17.51;71.82
15050;BME280;7622;42.724;23.250;2023-04-21T06:01:52;94320.84;;;17.04;70.69
15050;BME280;7622;42.724;23.250;2023-04-21T06:04:19;94323.31;;;16.41;73.34
15050;BME280;7622;42.724;23.250;2023-04-21T06:06:46;94325.84;;;16.99;70.92
15050;BME280;7622;42.724;23.250;2023-04-21T06:09:12;94317.72;;;17.49;68.96
15050;BME280;7622;42.724;23.250;2023-04-21T06:11:40;94310.22;;;17.46;67.25
15050;BME280;7622;42.724;23.250;2023-04-21T06:14:08;94310.94;;;17.61;67.00
15050;BME280;7622;42.724;23.250;2023-04-21T06:16:35;94305.72;;;17.75;66.72
15050;BME280;7622;42.724;23.250;2023-04-21T06:19:02;94309.16;;;17.75;67.12
15050;BME280;7622;42.724;23.250;2023-04-21T06:21:28;94309.84;;;17.90;65.54
15050;BME280;7622;42.724;23.250;2023-04-21T06:23:57;94323.75;;;18.52;64.15
15050;BME280;7622;42.724;23.250;2023-04-21T06:26:24;94321.00;;;18.05;65.26
15050;BME280;7622;42.724;23.250;2023-04-21T06:28:50;94311.78;;;17.68;66.28
15050;BME280;7622;42.724;23.250;2023-04-21T06:31:19;94311.97;;;17.67;66.70
15050;BME280;7622;42.724;23.250;2023-04-21T06:33:45;94320.22;;;17.02;68.89
15050;BME280;7622;42.724;23.250;2023-04-21T06:36:12;94312.06;;;17.18;69.57
15050;BME280;7622;42.724;23.250;2023-04-21T06:38:39;94310.28;;;17.25;69.50
15050;BME280;7622;42.724;23.250;2023-04-21T06:41:07;94309.34;;;17.05;69.90
15050;BME280;7622;42.724;23.250;2023-04-21T06:43:34;94317.44;;;17.10;71.41
15050;BME280;7622;42.724;23.250;2023-04-21T06:46:01;94312.72;;;17.26;72.08
15050;BME280;7622;42.724;23.250;2023-04-21T06:48:29;94303.50;;;17.78;69.04
15050;BME280;7622;42.724;23.250;2023-04-21T06:50:56;94296.69;;;17.84;66.73
15050;BME280;7622;42.724;23.250;2023-04-21T06:53:24;94301.75;;;17.92;67.23
15050;BME280;7622;42.724;23.250;2023-04-21T06:55:53;94300.16;;;17.97;67.29
15050;BME280;7622;42.724;23.250;2023-04-21T06:58:22;94301.75;;;17.92;67.28
15050;BME280;7622;42.724;23.250;2023-04-21T07:00:48;94294.72;;;18.12;67.51
15050;BME280;7622;42.724;23.250;2023-04-21T07:03:15;94303.44;;;18.26;66.02
15050;BME280;7622;42.724;23.250;2023-04-21T07:05:43;94303.69;;;18.37;64.73
15050;BME280;7622;42.724;23.250;2023-04-21T07:08:11;94291.31;;;18.12;64.65
15050;BME280;7622;42.724;23.250;2023-04-21T07:10:38;94233.03;;;18.01;64.10
15050;BME280;7622;42.724;23.250;2023-04-21T07:13:05;94297.88;;;18.68;63.76
15050;BME280;7622;42.724;23.250;2023-04-21T07:15:32;94304.28;;;18.39;64.45
15050;BME280;7622;42.724;23.250;2023-04-21T07:17:58;94293.66;;;17.87;65.61
15050;BME280;7622;42.724;23.250;2023-04-21T07:20:25;94300.47;;;17.40;68.45
15050;BME280;7622;42.724;23.250;2023-04-21T07:22:54;94300.94;;;17.16;68.92
15050;BME280;7622;42.724;23.250;2023-04-21T07:25:21;94300.28;;;17.42;69.34
15050;BME280;7622;42.724;23.250;2023-04-21T07:27:47;94301.94;;;17.49;68.71
15050;BME280;7622;42.724;23.250;2023-04-21T07:30:14;94298.84;;;18.47;64.97
15050;BME280;7622;42.724;23.250;2023-04-21T07:32:41;94302.31;;;19.20;61.83
15050;BME280;7622;42.724;23.250;2023-04-21T07:35:08;94302.31;;;19.20;61.25
15050;BME280;7622;42.724;23.250;2023-04-21T07:37:35;94306.94;;;19.51;60.17
15050;BME280;7622;42.724;23.250;2023-04-21T07:40:04;94298.75;;;20.24;57.69
15050;BME280;7622;42.724;23.250;2023-04-21T07:42:31;94299.91;;;19.96;57.73
15050;BME280;7622;42.724;23.250;2023-04-21T07:44:57;94299.06;;;19.25;59.05
15050;BME280;7622;42.724;23.250;2023-04-21T07:47:25;94305.13;;;19.39;59.32
15050;BME280;7622;42.724;23.250;2023-04-21T07:49:52;94301.31;;;19.92;57.65
15050;BME280;7622;42.724;23.250;2023-04-21T07:52:19;94286.78;;;19.83;57.90
15050;BME280;7622;42.724;23.250;2023-04-21T07:54:45;94301.06;;;19.62;58.49
15050;BME280;7622;42.724;23.250;2023-04-21T07:57:14;94297.81;;;19.60;59.28
15050;BME280;7622;42.724;23.250;2023-04-21T07:59:41;94308.97;;;19.43;58.94
15050;BME280;7622;42.724;23.250;2023-04-21T08:02:08;94308.84;;;18.85;59.79
15050;BME280;7622;42.724;23.250;2023-04-21T08:04:34;94316.84;;;18.37;61.67
15050;BME280;7622;42.724;23.250;2023-04-21T08:07:01;94307.94;;;18.25;61.95
15050;BME280;7622;42.724;23.250;2023-04-21T08:09:28;94301.31;;;17.82;62.91
15050;BME280;7622;42.724;23.250;2023-04-21T08:11:55;94307.50;;;17.61;63.31
15050;BME280;7622;42.724;23.250;2023-04-21T08:14:24;94308.47;;;17.25;66.67
15050;BME280;7622;42.724;23.250;2023-04-21T08:16:51;94300.50;;;17.12;67.38
15050;BME280;7622;42.724;23.250;2023-04-21T08:19:18;94301.59;;;17.24;68.12
15050;BME280;7622;42.724;23.250;2023-04-21T08:21:44;94294.50;;;16.90;68.34
15050;BME280;7622;42.724;23.250;2023-04-21T08:24:11;94292.06;;;17.17;67.70
15050;BME280;7622;42.724;23.250;2023-04-21T08:26:38;94294.72;;;17.23;67.07
15050;BME280;7622;42.724;23.250;2023-04-21T08:29:05;94286.72;;;17.04;67.39
15050;BME280;7622;42.724;23.250;2023-04-21T08:31:36;94289.97;;;17.06;66.46
15050;BME280;7622;42.724;23.250;2023-04-21T08:34:02;94271.97;;;16.75;67.57
15050;BME280;7622;42.724;23.250;2023-04-21T08:36:29;94289.34;;;17.04;67.45
15050;BME280;7622;42.724;23.250;2023-04-21T08:38:57;94285.41;;;18.03;67.06
15050;BME280;7622;42.724;23.250;2023-04-21T08:41:24;94273.19;;;18.96;61.31
15050;BME280;7622;42.724;23.250;2023-04-21T08:43:51;94286.28;;;19.42;59.66
15050;BME280;7622;42.724;23.250;2023-04-21T08:46:18;94285.22;;;19.69;58.21
15050;BME280;7622;42.724;23.250;2023-04-21T08:48:47;94286.75;;;19.90;57.50
15050;BME280;7622;42.724;23.250;2023-04-21T08:51:20;94277.53;;;20.12;55.27
15050;BME280;7622;42.724;23.250;2023-04-21T08:53:48;94281.78;;;20.51;54.69
15050;BME280;7622;42.724;23.250;2023-04-21T08:56:14;94288.09;;;21.00;54.14
15050;BME280;7622;42.724;23.250;2023-04-21T08:58:41;94274.25;;;21.47;52.76
15050;BME280;7622;42.724;23.250;2023-04-21T09:01:08;94268.78;;;21.24;53.45
15050;BME280;7622;42.724;23.250;2023-04-21T09:03:35;94266.16;;;21.24;52.57
15050;BME280;7622;42.724;23.250;2023-04-21T09:06:04;94284.56;;;20.88;52.72
15050;BME280;7622;42.724;23.250;2023-04-21T09:08:32;94262.94;;;21.40;51.93
15050;BME280;7622;42.724;23.250;2023-04-21T09:10:59;94269.34;;;21.08;52.16
15050;BME280;7622;42.724;23.250;2023-04-21T09:13:30;94269.66;;;21.18;51.21
15050;BME280;7622;42.724;23.250;2023-04-21T09:15:58;94261.78;;;21.36;49.65
15050;BME280;7622;42.724;23.250;2023-04-21T09:18:26;94255.81;;;21.95;49.23
15050;BME280;7622;42.724;23.250;2023-04-21T09:21:06;94252.50;;;22.00;48.93
15050;BME280;7622;42.724;23.250;2023-04-21T09:23:43;94243.38;;;22.14;48.01
15050;BME280;7622;42.724;23.250;2023-04-21T09:26:10;94248.19;;;22.47;47.34
15050;BME280;7622;42.724;23.250;2023-04-21T09:28:40;94235.63;;;22.43;47.97
15050;BME280;7622;42.724;23.250;2023-04-21T09:31:12;94235.09;;;21.74;48.05
15050;BME280;7622;42.724;23.250;2023-04-21T09:33:43;94230.28;;;21.10;49.60
15050;BME280;7622;42.724;23.250;2023-04-21T09:36:17;94215.38;;;21.58;50.07
15050;BME280;7622;42.724;23.250;2023-04-21T09:38:48;94238.03;;;22.03;48.59
15050;BME280;7622;42.724;23.250;2023-04-21T09:41:16;94231.81;;;22.80;47.13
15050;BME280;7622;42.724;23.250;2023-04-21T09:43:42;94227.84;;;22.71;46.39
15050;BME280;7622;42.724;23.250;2023-04-21T09:46:10;94229.97;;;23.39;45.86
15050;BME280;7622;42.724;23.250;2023-04-21T09:48:41;94227.88;;;22.29;46.85
15050;BME280;7622;42.724;23.250;2023-04-21T09:51:09;94223.88;;;21.60;47.78
15050;BME280;7622;42.724;23.250;2023-04-21T09:53:39;94227.50;;;21.05;49.12
15050;BME280;7622;42.724;23.250;2023-04-21T09:56:10;94216.41;;;21.21;49.30
15050;BME280;7622;42.724;23.250;2023-04-21T09:58:40;94223.75;;;20.69;49.59
15050;BME280;7622;42.724;23.250;2023-04-21T10:01:10;94232.38;;;19.95;50.71
15050;BME280;7622;42.724;23.250;2023-04-21T10:03:38;94227.09;;;19.95;51.51
15050;BME280;7622;42.724;23.250;2023-04-21T10:06:07;94209.59;;;19.05;53.16
15050;BME280;7622;42.724;23.250;2023-04-21T10:08:39;94224.63;;;18.72;54.18
15050;BME280;7622;42.724;23.250;2023-04-21T10:11:07;94213.28;;;18.84;54.76
15050;BME280;7622;42.724;23.250;2023-04-21T10:13:36;94218.34;;;18.53;55.56
15050;BME280;7622;42.724;23.250;2023-04-21T10:16:04;94213.28;;;18.25;56.64
15050;BME280;7622;42.724;23.250;2023-04-21T10:18:34;94222.09;;;17.91;56.87
15050;BME280;7622;42.724;23.250;2023-04-21T10:21:04;94216.91;;;18.24;56.14
15050;BME280;7622;42.724;23.250;2023-04-21T10:23:35;94214.84;;;18.13;55.37
15050;BME280;7622;42.724;23.250;2023-04-21T10:26:08;94199.31;;;18.38;54.81
15050;BME280;7622;42.724;23.250;2023-04-21T10:28:42;94216.53;;;18.67;55.38
15050;BME280;7622;42.724;23.250;2023-04-21T10:31:17;94206.81;;;18.80;55.53
15050;BME280;7622;42.724;23.250;2023-04-21T10:34:18;94207.41;;;18.43;55.61
15050;BME280;7622;42.724;23.250;2023-04-21T10:37:08;94215.28;;;18.89;53.90
15050;BME280;7622;42.724;23.250;2023-04-21T10:39:43;94216.13;;;19.98;51.54
15050;BME280;7622;42.724;23.250;2023-04-21T10:42:21;94158.75;;;20.25;49.45
15050;BME280;7622;42.724;23.250;2023-04-21T10:45:08;94206.47;;;21.16;48.57
15050;BME280;7622;42.724;23.250;2023-04-21T10:47:37;94203.06;;;21.34;48.33
15050;BME280;7622;42.724;23.250;2023-04-21T10:50:22;94208.81;;;20.81;49.27
15050;BME280;7622;42.724;23.250;2023-04-21T10:52:55;94212.19;;;20.70;48.98
15050;BME280;7622;42.724;23.250;2023-04-21T10:55:26;94216.97;;;20.55;49.01
15050;BME280;7622;42.724;23.250;2023-04-21T10:57:55;94217.69;;;20.44;48.64
15050;BME280;7622;42.724;23.250;2023-04-21T11:00:24;94162.81;;;19.96;48.67
15050;BME280;7622;42.724;23.250;2023-04-21T11:03:01;94211.50;;;19.56;50.95
15050;BME280;7622;42.724;23.250;2023-04-21T11:05:34;94185.38;;;19.48;50.32
15050;BME280;7622;42.724;23.250;2023-04-21T11:08:12;94211.91;;;19.40;51.08
15050;BME280;7622;42.724;23.250;2023-04-21T11:10:48;94212.06;;;20.02;50.45
15050;BME280;7622;42.724;23.250;2023-04-21T11:13:19;94208.44;;;19.97;48.58
15050;BME280;7622;42.724;23.250;2023-04-21T11:16:01;94201.16;;;19.92;47.80
15050;BME280;7622;42.724;23.250;2023-04-21T11:18:46;94202.69;;;20.06;47.33
15050;BME280;7622;42.724;23.250;2023-04-21T11:21:14;94202.34;;;20.59;46.39
15050;BME280;7622;42.724;23.250;2023-04-21T11:23:48;94176.91;;;20.65;49.36
15050;BME280;7622;42.724;23.250;2023-04-21T11:26:15;94195.44;;;20.58;49.34
15050;BME280;7622;42.724;23.250;2023-04-21T11:28:46;94191.84;;;20.96;48.37
15050;BME280;7622;42.724;23.250;2023-04-21T11:31:14;94192.84;;;20.76;47.95
15050;BME280;7622;42.724;23.250;2023-04-21T11:33:41;94188.41;;;20.52;47.44
15050;BME280;7622;42.724;23.250;2023-04-21T11:36:08;94198.75;;;20.47;47.69
15050;BME280;7622;42.724;23.250;2023-04-21T11:38:39;94195.31;;;20.71;46.91
15050;BME280;7622;42.724;23.250;2023-04-21T11:41:06;94191.56;;;20.36;47.19
15050;BME280;7622;42.724;23.250;2023-04-21T11:43:35;94208.25;;;20.79;46.13
15050;BME280;7622;42.724;23.250;2023-04-21T11:46:16;94201.72;;;20.82;45.83
15050;BME280;7622;42.724;23.250;2023-04-21T11:48:44;94200.50;;;21.28;45.54
15050;BME280;7622;42.724;23.250;2023-04-21T11:51:17;94211.50;;;21.00;45.44
15050;BME280;7622;42.724;23.250;2023-04-21T11:53:46;94204.72;;;20.67;45.16
15050;BME280;7622;42.724;23.250;2023-04-21T11:56:16;94192.13;;;20.88;44.83
15050;BME280;7622;42.724;23.250;2023-04-21T11:58:44;94212.69;;;21.04;44.74
15050;BME280;7622;42.724;23.250;2023-04-21T12:01:14;94208.75;;;21.31;44.37
15050;BME280;7622;42.724;23.250;2023-04-21T12:03:41;94202.84;;;20.93;46.16
15050;BME280;7622;42.724;23.250;2023-04-21T12:06:07;94211.59;;;20.68;45.69
15050;BME280;7622;42.724;23.250;2023-04-21T12:08:34;94203.72;;;20.62;46.16
15050;BME280;7622;42.724;23.250;2023-04-21T12:11:01;94211.63;;;20.62;46.55
15050;BME280;7622;42.724;23.250;2023-04-21T12:13:28;94210.00;;;20.67;47.28
15050;BME280;7622;42.724;23.250;2023-04-21T12:16:01;94210.09;;;19.91;48.02
15050;BME280;7622;42.724;23.250;2023-04-21T12:18:30;94206.44;;;20.24;48.35
15050;BME280;7622;42.724;23.250;2023-04-21T12:21:00;94203.97;;;20.29;48.03
15050;BME280;7622;42.724;23.250;2023-04-21T12:23:27;94218.47;;;20.13;47.99
15050;BME280;7622;42.724;23.250;2023-04-21T12:25:54;94204.00;;;19.91;48.12
15050;BME280;7622;42.724;23.250;2023-04-21T12:28:21;94198.78;;;19.84;47.98
15050;BME280;7622;42.724;23.250;2023-04-21T12:30:48;94196.94;;;19.34;48.30
15050;BME280;7622;42.724;23.250;2023-04-21T12:33:15;94215.50;;;19.58;48.72
15050;BME280;7622;42.724;23.250;2023-04-21T12:35:43;94214.94;;;19.43;49.62
15050;BME280;7622;42.724;23.250;2023-04-21T12:38:10;94218.06;;;19.78;49.89
15050;BME280;7622;42.724;23.250;2023-04-21T12:40:36;94214.66;;;19.64;50.32
15050;BME280;7622;42.724;23.250;2023-04-21T12:43:03;94204.66;;;19.28;51.16
15050;BME280;7622;42.724;23.250;2023-04-21T12:45:30;94213.66;;;18.95;51.34
15050;BME280;7622;42.724;23.250;2023-04-21T12:47:57;94210.81;;;18.96;51.87
15050;BME280;7622;42.724;23.250;2023-04-21T12:50:25;94205.16;;;18.93;52.55
15050;BME280;7622;42.724;23.250;2023-04-21T12:52:53;94208.81;;;18.85;51.45
15050;BME280;7622;42.724;23.250;2023-04-21T12:55:20;94206.94;;;19.05;50.87
15050;BME280;7622;42.724;23.250;2023-04-21T12:57:47;94186.91;;;19.04;50.98
15050;BME280;7622;42.724;23.250;2023-04-21T13:00:14;94200.72;;;18.80;51.37
15050;BME280;7622;42.724;23.250;2023-04-21T13:02:41;94198.19;;;19.24;50.95